createdAt,value
2022-12-23T00:00:06.545Z,5.66
2022-12-23T00:02:30.320Z,5.68
2022-12-23T00:04:52.792Z,5.65
2022-12-23T00:07:15.148Z,5.66
2022-12-23T00:09:37.603Z,5.66
2022-12-23T00:12:18.710Z,5.65
2022-12-23T00:14:59.457Z,5.66
2022-12-23T00:17:23.212Z,5.66
2022-12-23T00:19:45.866Z,5.62
2022-12-23T00:22:08.212Z,5.63
2022-12-23T00:24:30.560Z,5.63
2022-12-23T00:26:52.894Z,5.58
2022-12-23T00:29:15.233Z,5.57
2022-12-23T00:31:37.608Z,5.57
2022-12-23T00:34:00.094Z,5.57
2022-12-23T00:36:27.755Z,5.53
2022-12-23T00:39:08.938Z,5.52
2022-12-23T00:41:49.798Z,5.50
2022-12-23T00:44:12.226Z,5.47
2022-12-23T00:46:34.597Z,5.47
2022-12-23T00:49:15.530Z,5.39
2022-12-23T00:51:38.058Z,5.37
2022-12-23T00:54:01.085Z,5.37
2022-12-23T00:56:23.454Z,5.38
2022-12-23T00:58:45.860Z,5.35
2022-12-23T01:01:26.913Z,5.36
2022-12-23T01:04:07.974Z,5.32
2022-12-23T01:06:30.331Z,5.31
2022-12-23T01:08:52.674Z,5.32
2022-12-23T01:11:15.016Z,5.32
2022-12-23T01:13:37.655Z,5.27
2022-12-23T01:16:16.939Z,5.28
2022-12-23T01:18:40.980Z,5.24
2022-12-23T01:21:08.567Z,5.21
2022-12-23T01:23:31.114Z,5.18
2022-12-23T01:26:01.642Z,5.12
2022-12-23T01:28:24.008Z,5.06
2022-12-23T01:30:46.372Z,5.05
2022-12-23T01:33:08.708Z,5.01
2022-12-23T01:35:31.133Z,4.99
2022-12-23T01:37:53.466Z,4.95
2022-12-23T01:40:15.883Z,4.89
2022-12-23T01:42:44.471Z,4.85
2022-12-23T01:45:31.112Z,4.88
2022-12-23T01:48:03.803Z,4.85
2022-12-23T01:50:27.255Z,4.82
2022-12-23T01:53:08.604Z,4.81
2022-12-23T01:55:33.268Z,4.82
2022-12-23T01:57:56.975Z,4.80
2022-12-23T02:00:38.130Z,4.78
2022-12-23T02:03:19.202Z,4.75
2022-12-23T02:05:44.339Z,4.76
2022-12-23T02:08:25.318Z,4.72
2022-12-23T02:11:06.458Z,4.69
2022-12-23T02:14:17.513Z,4.63
2022-12-23T02:16:47.509Z,4.60
2022-12-23T02:19:23.402Z,4.60
2022-12-23T02:21:57.340Z,4.59
2022-12-23T02:24:47.142Z,4.57
2022-12-23T02:27:12.264Z,4.53
2022-12-23T02:29:49.565Z,4.51
2022-12-23T02:32:31.297Z,4.52
2022-12-23T02:35:05.040Z,4.50
2022-12-23T02:38:12.162Z,4.42
2022-12-23T02:40:57.715Z,4.42
2022-12-23T02:43:53.384Z,4.38
2022-12-23T02:46:22.766Z,4.37
2022-12-23T02:48:57.969Z,4.33
2022-12-23T02:51:21.897Z,4.30
2022-12-23T02:53:52.198Z,4.27
2022-12-23T02:56:15.214Z,4.24
2022-12-23T02:58:54.791Z,4.25
2022-12-23T03:01:17.200Z,4.25
2022-12-23T03:03:39.591Z,4.19
2022-12-23T03:06:02.516Z,4.18
2022-12-23T03:08:29.438Z,4.16
2022-12-23T03:11:04.813Z,4.16
2022-12-23T03:13:55.127Z,4.14
2022-12-23T03:16:35.269Z,4.14
2022-12-23T03:19:11.659Z,4.15
2022-12-23T03:22:08.489Z,4.15
2022-12-23T03:24:54.071Z,4.10
2022-12-23T03:27:27.092Z,4.13
2022-12-23T03:30:09.710Z,4.13
2022-12-23T03:33:05.857Z,4.16
2022-12-23T03:35:35.564Z,4.16
2022-12-23T03:37:57.910Z,4.15
2022-12-23T03:40:41.768Z,4.15
2022-12-23T03:43:09.855Z,4.14
2022-12-23T03:45:47.448Z,4.17
2022-12-23T03:48:31.509Z,4.15
2022-12-23T03:50:57.391Z,4.15
2022-12-23T03:53:27.170Z,4.11
2022-12-23T03:55:54.370Z,4.13
2022-12-23T03:58:31.597Z,4.11
2022-12-23T04:01:18.497Z,4.06
2022-12-23T04:03:56.165Z,4.04
2022-12-23T04:06:18.587Z,4.02
2022-12-23T04:08:41.001Z,4.01
2022-12-23T04:11:03.532Z,4.02
2022-12-23T04:13:27.806Z,4.02
2022-12-23T04:15:50.174Z,4.03
2022-12-23T04:18:12.655Z,3.95
2022-12-23T04:20:35.053Z,3.97
2022-12-23T04:22:57.425Z,3.99
2022-12-23T04:25:19.949Z,3.94
2022-12-23T04:27:42.467Z,3.98
2022-12-23T04:30:06.400Z,3.98
2022-12-23T04:32:28.740Z,3.96
2022-12-23T04:34:51.099Z,3.92
2022-12-23T04:37:13.493Z,3.90
2022-12-23T04:39:35.842Z,3.92
2022-12-23T04:41:58.181Z,3.88
2022-12-23T04:44:20.553Z,3.87
2022-12-23T04:46:42.986Z,3.88
2022-12-23T04:49:05.427Z,3.88
2022-12-23T04:51:27.814Z,3.81
2022-12-23T04:53:50.253Z,3.81
2022-12-23T04:56:12.618Z,3.78
2022-12-23T04:58:34.979Z,3.78
2022-12-23T05:01:08.805Z,3.85
2022-12-23T05:03:31.332Z,3.75
2022-12-23T05:05:53.853Z,3.76
2022-12-23T05:08:16.210Z,3.80
2022-12-23T05:10:38.639Z,3.83
2022-12-23T05:13:01.011Z,3.86
2022-12-23T05:15:23.364Z,3.80
2022-12-23T05:17:45.712Z,3.78
2022-12-23T05:20:09.135Z,3.80
2022-12-23T05:22:31.507Z,3.76
2022-12-23T05:24:53.917Z,3.80
2022-12-23T05:27:16.328Z,3.78
2022-12-23T05:29:38.693Z,3.74
2022-12-23T05:32:01.155Z,3.68
2022-12-23T05:34:23.562Z,3.67
2022-12-23T05:36:45.901Z,3.64
2022-12-23T05:39:09.631Z,3.65
2022-12-23T05:41:32.033Z,3.64
2022-12-23T05:43:54.422Z,3.66
2022-12-23T05:46:19.915Z,3.62
2022-12-23T05:48:46.835Z,3.57
2022-12-23T05:51:09.218Z,3.62
2022-12-23T05:53:31.725Z,3.61
2022-12-23T05:55:54.106Z,3.63
2022-12-23T05:58:16.670Z,3.61
2022-12-23T06:00:39.148Z,3.62
2022-12-23T06:03:01.645Z,3.59
2022-12-23T06:05:24.065Z,3.57
2022-12-23T06:07:46.459Z,3.58
2022-12-23T06:10:10.036Z,3.60
2022-12-23T06:12:32.372Z,3.60
2022-12-23T06:14:54.736Z,3.62
2022-12-23T06:17:17.089Z,3.62
2022-12-23T06:19:39.455Z,3.64
2022-12-23T06:22:01.833Z,3.67
2022-12-23T06:24:24.163Z,3.66
2022-12-23T06:26:46.520Z,3.61
2022-12-23T06:29:08.858Z,3.68
2022-12-23T06:31:31.249Z,3.69
2022-12-23T06:33:53.598Z,3.70
2022-12-23T06:36:15.928Z,3.68
2022-12-23T06:38:18.200Z,3.71
2022-12-23T06:40:20.288Z,3.76
2022-12-23T06:42:23.673Z,3.74
2022-12-23T06:44:25.741Z,3.74
2022-12-23T06:46:46.364Z,3.74
2022-12-23T06:49:12.838Z,3.76
2022-12-23T06:51:36.007Z,3.78
2022-12-23T06:54:00.073Z,3.77
2022-12-23T06:56:22.463Z,3.84
2022-12-23T06:58:44.820Z,3.78
2022-12-23T07:01:07.208Z,3.81
2022-12-23T07:03:29.684Z,3.85
2022-12-23T07:05:52.467Z,3.83
2022-12-23T07:08:14.825Z,3.86
2022-12-23T07:10:37.186Z,3.87
2022-12-23T07:12:59.541Z,3.91
2022-12-23T07:15:21.910Z,3.86
2022-12-23T07:17:44.229Z,3.93
2022-12-23T07:20:07.779Z,3.96
2022-12-23T07:22:30.153Z,3.96
2022-12-23T07:24:52.577Z,3.97
2022-12-23T07:27:14.957Z,3.95
2022-12-23T07:29:37.288Z,3.98
2022-12-23T07:32:00.911Z,4.03
2022-12-23T07:34:23.317Z,4.00
2022-12-23T07:36:45.680Z,4.04
2022-12-23T07:39:08.114Z,4.03
2022-12-23T07:41:30.544Z,4.13
2022-12-23T07:43:52.882Z,4.17
2022-12-23T07:46:15.380Z,4.16
2022-12-23T07:48:37.849Z,4.14
2022-12-23T07:51:02.075Z,4.17
2022-12-23T07:53:24.455Z,4.23
2022-12-23T07:55:51.562Z,4.24
2022-12-23T07:58:17.001Z,4.22
2022-12-23T08:00:39.320Z,4.28
2022-12-23T08:03:01.783Z,4.34
2022-12-23T08:05:24.349Z,4.32
2022-12-23T08:07:46.712Z,4.36
2022-12-23T08:10:10.219Z,4.37
2022-12-23T08:12:32.868Z,4.42
2022-12-23T08:14:55.219Z,4.44
2022-12-23T08:17:17.659Z,4.45
2022-12-23T08:19:40.136Z,4.48
2022-12-23T08:22:02.498Z,4.50
2022-12-23T08:24:24.861Z,4.51
2022-12-23T08:26:47.214Z,4.52
2022-12-23T08:29:09.623Z,4.49
2022-12-23T08:31:32.187Z,4.52
2022-12-23T08:33:56.539Z,4.56
2022-12-23T08:36:27.383Z,4.57
2022-12-23T08:38:50.238Z,4.62
2022-12-23T08:41:17.953Z,4.62
2022-12-23T08:43:40.415Z,4.66
2022-12-23T08:46:03.081Z,4.66
2022-12-23T08:48:25.478Z,4.69
2022-12-23T08:50:47.850Z,4.73
2022-12-23T08:53:10.636Z,4.77
2022-12-23T08:55:46.738Z,4.73
2022-12-23T08:58:09.390Z,4.81
2022-12-23T09:00:31.723Z,4.84
2022-12-23T09:02:54.205Z,4.84
2022-12-23T09:05:16.711Z,4.84
2022-12-23T09:07:18.729Z,4.87
2022-12-23T09:09:20.798Z,4.89
2022-12-23T09:11:24.781Z,4.89
2022-12-23T09:13:34.850Z,4.93
2022-12-23T09:15:44.610Z,4.93
2022-12-23T09:17:46.837Z,4.94
2022-12-23T09:19:52.917Z,4.90
2022-12-23T09:21:55.829Z,4.89
2022-12-23T09:23:57.902Z,4.89
2022-12-23T09:26:00.906Z,4.91
2022-12-23T09:28:05.125Z,4.91
2022-12-23T09:30:08.579Z,4.97
2022-12-23T09:32:11.482Z,4.97
2022-12-23T09:34:14.169Z,5.01
2022-12-23T09:36:17.189Z,5.00
2022-12-23T09:38:19.528Z,4.97
2022-12-23T09:40:21.999Z,4.94
2022-12-23T09:43:14.808Z,5.00
2022-12-23T09:45:26.764Z,5.06
2022-12-23T09:47:30.231Z,5.03
2022-12-23T09:49:32.751Z,5.06
2022-12-23T09:51:37.080Z,5.13
2022-12-23T09:54:04.139Z,5.14
2022-12-23T09:56:23.911Z,5.17
2022-12-23T09:59:08.115Z,5.17
2022-12-23T10:01:44.767Z,5.17
2022-12-23T10:04:23.476Z,5.19
2022-12-23T10:06:47.321Z,5.21
2022-12-23T10:09:09.839Z,5.21
2022-12-23T10:11:38.174Z,5.20
2022-12-23T10:14:22.321Z,5.22
2022-12-23T10:16:47.205Z,5.26
2022-12-23T10:19:29.860Z,5.28
2022-12-23T10:21:55.023Z,5.30
2022-12-23T10:24:36.732Z,5.32
2022-12-23T10:27:31.804Z,5.35
2022-12-23T10:29:54.171Z,5.37
2022-12-23T10:32:59.767Z,5.40
2022-12-23T10:36:06.882Z,5.43
2022-12-23T10:39:06.060Z,5.44
2022-12-23T10:41:51.100Z,5.45
2022-12-23T10:44:49.742Z,5.44
2022-12-23T10:47:14.731Z,5.48
2022-12-23T10:50:19.502Z,5.53
2022-12-23T10:52:42.924Z,5.51
2022-12-23T10:55:05.800Z,5.56
2022-12-23T10:57:28.160Z,5.59
2022-12-23T10:59:50.597Z,5.59
2022-12-23T11:02:13.094Z,5.60
2022-12-23T11:04:37.316Z,5.66
2022-12-23T11:07:26.203Z,5.68
2022-12-23T11:09:48.418Z,5.59
2022-12-23T11:12:12.027Z,5.63
2022-12-23T11:14:40.248Z,5.65
2022-12-23T11:17:04.527Z,5.65
2022-12-23T11:19:26.945Z,5.61
2022-12-23T11:21:59.730Z,5.63
2022-12-23T11:24:22.935Z,5.68
2022-12-23T11:27:06.941Z,5.72
2022-12-23T11:29:35.364Z,5.71
2022-12-23T11:31:57.829Z,5.75
2022-12-23T11:34:21.910Z,5.68
2022-12-23T11:36:44.365Z,5.67
2022-12-23T11:39:21.986Z,5.67
2022-12-23T11:41:48.322Z,5.70
2022-12-23T11:44:36.456Z,5.73
2022-12-23T11:47:17.502Z,5.76
2022-12-23T11:49:46.836Z,5.72
2022-12-23T11:52:09.146Z,5.80
2022-12-23T11:54:32.271Z,5.85
2022-12-23T11:56:54.800Z,5.89
2022-12-23T11:59:39.620Z,5.93
2022-12-23T12:02:26.926Z,5.92
2022-12-23T12:04:59.301Z,5.96
2022-12-23T12:07:21.683Z,5.97
2022-12-23T12:09:47.068Z,6.03
2022-12-23T12:12:19.458Z,6.01
2022-12-23T12:14:48.272Z,6.10
2022-12-23T12:17:40.483Z,6.19
2022-12-23T12:20:33.326Z,6.28
2022-12-23T12:22:58.854Z,6.29
2022-12-23T12:25:23.195Z,6.31
2022-12-23T12:28:00.297Z,6.37
2022-12-23T12:30:23.059Z,6.39
2022-12-23T12:33:00.920Z,6.37
2022-12-23T12:35:53.654Z,6.38
2022-12-23T12:38:32.560Z,6.31
2022-12-23T12:41:22.481Z,6.34
2022-12-23T12:43:56.425Z,6.27
2022-12-23T12:46:34.735Z,6.27
2022-12-23T12:49:10.874Z,6.22
2022-12-23T12:51:54.432Z,6.19
2022-12-23T12:54:27.738Z,6.23
2022-12-23T12:56:57.552Z,6.17
2022-12-23T12:59:28.645Z,6.27
2022-12-23T13:02:25.012Z,6.21
2022-12-23T13:05:14.907Z,6.24
2022-12-23T13:07:46.359Z,6.22
2022-12-23T13:11:10.338Z,6.25
2022-12-23T13:13:39.735Z,6.20
2022-12-23T13:16:07.740Z,6.15
2022-12-23T13:19:14.503Z,6.16
2022-12-23T13:22:09.654Z,6.17
2022-12-23T13:24:49.812Z,6.21
2022-12-23T13:27:39.618Z,6.11
2022-12-23T13:30:18.038Z,6.12
2022-12-23T13:33:10.861Z,6.18
2022-12-23T13:35:50.992Z,6.19
2022-12-23T13:38:39.303Z,6.10
2022-12-23T13:41:20.572Z,6.09
2022-12-23T13:43:46.677Z,6.01
2022-12-23T13:46:18.155Z,6.01
2022-12-23T13:48:55.289Z,6.04
2022-12-23T13:51:37.659Z,6.01
2022-12-23T13:54:20.868Z,6.00
2022-12-23T13:57:08.534Z,6.06
2022-12-23T13:59:42.809Z,6.07
2022-12-23T14:02:37.231Z,6.04
2022-12-23T14:05:00.067Z,6.03
2022-12-23T14:07:22.575Z,6.00
2022-12-23T14:09:44.937Z,5.99
2022-12-23T14:12:28.514Z,5.96
2022-12-23T14:15:25.415Z,5.91
2022-12-23T14:18:27.743Z,5.86
2022-12-23T14:20:52.091Z,5.84
2022-12-23T14:23:24.437Z,5.80
2022-12-23T14:25:32.649Z,5.82
2022-12-23T14:27:55.995Z,5.89
2022-12-23T14:30:17.449Z,5.92
2022-12-23T14:32:34.471Z,5.90
2022-12-23T14:34:39.302Z,5.80
2022-12-23T14:36:42.389Z,5.77
2022-12-23T14:39:12.251Z,5.76
2022-12-23T14:41:48.016Z,5.71
2022-12-23T14:43:55.891Z,5.70
2022-12-23T14:46:05.028Z,5.73
2022-12-23T14:48:44.623Z,5.70
2022-12-23T14:51:10.362Z,5.67
2022-12-23T14:53:26.939Z,5.70
2022-12-23T14:55:32.606Z,5.70
2022-12-23T14:57:35.183Z,5.65
2022-12-23T15:00:02.406Z,5.66
2022-12-23T15:02:29.026Z,5.64
2022-12-23T15:04:50.983Z,5.61
2022-12-23T15:06:54.231Z,5.65
2022-12-23T15:08:56.913Z,5.64
2022-12-23T15:11:00.062Z,5.63
2022-12-23T15:13:03.221Z,5.63
2022-12-23T15:15:20.558Z,5.55
2022-12-23T15:17:34.996Z,5.56
2022-12-23T15:19:37.350Z,5.55
2022-12-23T15:21:40.064Z,5.58
2022-12-23T15:23:50.603Z,5.57
2022-12-23T15:26:11.184Z,5.55
2022-12-23T15:28:38.736Z,5.52
2022-12-23T15:31:02.071Z,5.48
2022-12-23T15:34:01.627Z,5.49
2022-12-23T15:36:09.882Z,5.45
2022-12-23T15:38:36.185Z,5.49
2022-12-23T15:41:13.861Z,5.42
2022-12-23T15:43:41.478Z,5.45
2022-12-23T15:46:31.604Z,5.42
2022-12-23T15:48:54.014Z,5.42
2022-12-23T15:52:05.177Z,5.42
2022-12-23T15:54:30.900Z,5.42
2022-12-23T15:56:53.946Z,5.41
2022-12-23T15:59:24.108Z,5.39
2022-12-23T16:01:46.560Z,5.37
2022-12-23T16:04:09.140Z,5.37
2022-12-23T16:06:33.955Z,5.35
2022-12-23T16:09:03.180Z,5.37
2022-12-23T16:11:59.297Z,5.32
2022-12-23T16:14:34.890Z,5.31
2022-12-23T16:17:09.499Z,5.31
2022-12-23T16:20:24.268Z,5.32
2022-12-23T16:22:49.185Z,5.31
2022-12-23T16:25:17.856Z,5.29
2022-12-23T16:27:47.859Z,5.31
2022-12-23T16:30:10.698Z,5.35
2022-12-23T16:32:33.098Z,5.41
2022-12-23T16:34:55.524Z,5.40
2022-12-23T16:37:17.942Z,5.36
2022-12-23T16:39:41.221Z,5.36
2022-12-23T16:42:04.495Z,5.40
2022-12-23T16:44:26.835Z,5.37
2022-12-23T16:46:49.853Z,5.34
2022-12-23T16:49:19.098Z,5.31
2022-12-23T16:51:41.553Z,5.30
2022-12-23T16:54:04.066Z,5.27
2022-12-23T16:56:35.958Z,5.22
2022-12-23T16:58:58.325Z,5.24
2022-12-23T17:01:30.033Z,5.28
2022-12-23T17:03:52.607Z,5.24
2022-12-23T17:06:15.494Z,5.24
2022-12-23T17:08:37.840Z,5.20
2022-12-23T17:11:00.222Z,5.21
2022-12-23T17:13:22.588Z,5.17
2022-12-23T17:15:45.167Z,5.17
2022-12-23T17:18:16.647Z,5.21
2022-12-23T17:20:39.052Z,5.20
2022-12-23T17:23:01.412Z,5.18
2022-12-23T17:25:26.744Z,5.17
2022-12-23T17:27:50.230Z,5.18
2022-12-23T17:30:19.508Z,5.14
2022-12-23T17:32:42.057Z,5.17
2022-12-23T17:35:04.826Z,5.18
2022-12-23T17:37:28.435Z,5.17
2022-12-23T17:39:50.923Z,5.18
2022-12-23T17:42:25.761Z,5.16
2022-12-23T17:44:48.791Z,5.19
2022-12-23T17:47:17.733Z,5.16
2022-12-23T17:49:40.098Z,5.12
2022-12-23T17:52:03.447Z,5.07
2022-12-23T17:54:25.776Z,5.06
2022-12-23T17:56:48.089Z,5.06
2022-12-23T17:59:10.755Z,5.11
2022-12-23T18:01:33.165Z,5.14
2022-12-23T18:03:56.672Z,5.12
2022-12-23T18:06:21.064Z,5.12
2022-12-23T18:08:43.501Z,5.15
2022-12-23T18:11:06.435Z,5.12
2022-12-23T18:13:28.796Z,5.10
2022-12-23T18:15:51.223Z,5.10
2022-12-23T18:18:28.552Z,5.15
2022-12-23T18:20:55.096Z,5.11
2022-12-23T18:23:29.288Z,5.09
2022-12-23T18:25:51.783Z,5.12
2022-12-23T18:28:14.139Z,5.11
2022-12-23T18:30:36.536Z,5.07
2022-12-23T18:32:58.922Z,5.08
2022-12-23T18:35:31.078Z,5.08
2022-12-23T18:37:53.643Z,5.10
2022-12-23T18:40:16.106Z,5.07
2022-12-23T18:42:38.486Z,5.05
2022-12-23T18:45:00.828Z,5.08
2022-12-23T18:47:23.192Z,5.05
2022-12-23T18:49:45.567Z,5.06
2022-12-23T18:52:12.455Z,5.05
2022-12-23T18:54:35.253Z,5.07
2022-12-23T18:57:01.231Z,5.05
2022-12-23T18:59:29.566Z,5.01
2022-12-23T19:01:52.570Z,5.01
2022-12-23T19:04:15.017Z,5.02
2022-12-23T19:06:38.840Z,5.04
2022-12-23T19:09:01.343Z,5.06
2022-12-23T19:11:23.738Z,5.02
2022-12-23T19:13:46.236Z,5.03
2022-12-23T19:16:11.657Z,5.02
2022-12-23T19:18:34.032Z,5.05
2022-12-23T19:20:56.405Z,5.13
2022-12-23T19:23:18.835Z,5.12
2022-12-23T19:25:43.492Z,5.11
2022-12-23T19:28:07.711Z,5.14
2022-12-23T19:30:30.366Z,5.15
2022-12-23T19:32:54.043Z,5.15
2022-12-23T19:35:16.473Z,5.18
2022-12-23T19:37:38.841Z,5.16
2022-12-23T19:40:01.198Z,5.15
2022-12-23T19:42:03.386Z,5.18
2022-12-23T19:44:05.491Z,5.17
2022-12-23T19:46:09.256Z,5.16
2022-12-23T19:48:11.420Z,5.18
2022-12-23T19:50:13.510Z,5.19
2022-12-23T19:52:15.638Z,5.23
2022-12-23T19:54:18.404Z,5.24
2022-12-23T19:56:25.120Z,5.23
2022-12-23T19:58:28.151Z,5.25
2022-12-23T20:00:30.194Z,5.25
2022-12-23T20:02:32.324Z,5.24
2022-12-23T20:04:35.218Z,5.26
2022-12-23T20:06:38.617Z,5.27
2022-12-23T20:08:41.097Z,5.28
2022-12-23T20:10:44.918Z,5.26
2022-12-23T20:12:47.718Z,5.28
2022-12-23T20:14:49.850Z,5.27
2022-12-23T20:16:52.861Z,5.32
2022-12-23T20:18:55.372Z,5.29
2022-12-23T20:20:59.638Z,5.29
2022-12-23T20:23:01.904Z,5.32
2022-12-23T20:25:04.816Z,5.29
2022-12-23T20:27:11.326Z,5.32
2022-12-23T20:29:13.801Z,5.29
2022-12-23T20:31:37.537Z,5.30
2022-12-23T20:33:39.988Z,5.28
2022-12-23T20:35:42.195Z,5.30
2022-12-23T20:37:45.293Z,5.30
2022-12-23T20:39:48.305Z,5.25
2022-12-23T20:41:50.877Z,5.20
2022-12-23T20:44:31.845Z,5.15
2022-12-23T20:46:17.835Z,5.11
2022-12-23T20:48:21.807Z,5.10
2022-12-23T20:50:24.548Z,5.09
2022-12-23T20:52:27.384Z,5.05
2022-12-23T20:54:33.662Z,5.01
2022-12-23T20:56:37.133Z,5.03
2022-12-23T20:58:55.071Z,5.01
2022-12-23T21:01:07.632Z,4.98
2022-12-23T21:03:10.753Z,4.98
2022-12-23T21:05:12.983Z,4.94
2022-12-23T21:07:15.843Z,4.94
2022-12-23T21:09:18.549Z,4.95
2022-12-23T21:11:22.338Z,4.97
2022-12-23T21:13:25.161Z,4.94
2022-12-23T21:15:27.474Z,4.94
2022-12-23T21:17:31.271Z,4.93
2022-12-23T21:19:34.975Z,4.92
2022-12-23T21:21:37.126Z,4.91
2022-12-23T21:23:40.817Z,4.92
2022-12-23T21:25:42.902Z,4.93
2022-12-23T21:27:45.016Z,4.95
2022-12-23T21:29:47.091Z,4.96
2022-12-23T21:31:49.225Z,4.93
2022-12-23T21:33:51.477Z,4.99
2022-12-23T21:35:54.274Z,5.01
2022-12-23T21:37:56.396Z,5.04
2022-12-23T21:39:58.492Z,5.02
2022-12-23T21:42:00.586Z,5.06
2022-12-23T21:44:02.858Z,5.04
2022-12-23T21:46:08.216Z,5.08
2022-12-23T21:48:10.428Z,5.07
2022-12-23T21:50:12.584Z,5.06
2022-12-23T21:52:14.767Z,5.06
2022-12-23T21:54:16.842Z,5.06
2022-12-23T21:56:25.071Z,5.06
2022-12-23T21:58:27.089Z,5.09
2022-12-23T22:00:29.118Z,5.09
2022-12-23T22:02:31.365Z,5.10
2022-12-23T22:04:33.459Z,5.09
2022-12-23T22:06:38.284Z,5.09
2022-12-23T22:08:40.491Z,5.08
2022-12-23T22:10:42.533Z,5.08
2022-12-23T22:12:44.576Z,5.06
2022-12-23T22:14:46.619Z,5.00
2022-12-23T22:16:48.710Z,5.02
2022-12-23T22:18:51.234Z,5.01
2022-12-23T22:20:53.295Z,4.92
2022-12-23T22:22:55.402Z,4.96
2022-12-23T22:24:57.475Z,4.88
2022-12-23T22:26:59.535Z,4.85
2022-12-23T22:29:04.879Z,4.87
2022-12-23T22:31:21.008Z,4.81
2022-12-23T22:33:23.098Z,4.83
2022-12-23T22:35:27.940Z,4.75
2022-12-23T22:37:29.946Z,4.78
2022-12-23T22:39:31.949Z,4.83
2022-12-23T22:41:34.495Z,4.76
2022-12-23T22:43:37.075Z,4.72
2022-12-23T22:45:39.157Z,4.67
2022-12-23T22:47:41.317Z,4.65
2022-12-23T22:49:43.370Z,4.67
2022-12-23T22:51:45.696Z,4.64
2022-12-23T22:53:48.127Z,4.66
2022-12-23T22:55:58.334Z,4.59
2022-12-23T22:58:00.361Z,4.59
2022-12-23T23:00:07.808Z,4.60
2022-12-23T23:02:13.828Z,4.51
2022-12-23T23:04:16.674Z,4.52
2022-12-23T23:06:18.919Z,4.49
2022-12-23T23:08:21.025Z,4.49
2022-12-23T23:10:23.386Z,4.52
2022-12-23T23:12:26.107Z,4.47
2022-12-23T23:14:48.897Z,4.47
2022-12-23T23:16:51.921Z,4.44
2022-12-23T23:18:55.055Z,4.40
2022-12-23T23:20:57.574Z,4.40
2022-12-23T23:23:00.057Z,4.32
2022-12-23T23:25:02.918Z,4.35
2022-12-23T23:27:06.923Z,4.32
2022-12-23T23:29:09.543Z,4.36
2022-12-23T23:33:34.451Z,4.36
2022-12-23T23:35:36.990Z,4.34
2022-12-23T23:37:39.361Z,4.31
2022-12-23T23:39:42.180Z,4.28
2022-12-23T23:41:44.664Z,4.23
2022-12-23T23:43:47.312Z,4.22
2022-12-23T23:45:50.214Z,4.19
2022-12-23T23:47:52.649Z,4.19
2022-12-23T23:49:55.338Z,4.20
2022-12-23T23:51:57.930Z,4.20
2022-12-23T23:54:00.441Z,4.21
2022-12-23T23:56:05.379Z,4.20
2022-12-23T23:58:08.276Z,4.23
